sensor_id;sensor_type;location;lat;lon;timestamp;P1;durP1;ratioP1;P2;durP2;ratioP2
58950;SDS011;44730;53.158;6.398;2022-12-18T00:00:40;68.88;;;32.13;;
58950;SDS011;44730;53.158;6.398;2022-12-18T00:03:06;62.97;;;29.95;;
58950;SDS011;44730;53.158;6.398;2022-12-18T00:05:32;64.80;;;30.50;;
58950;SDS011;44730;53.158;6.398;2022-12-18T00:07:58;62.80;;;27.98;;
58950;SDS011;44730;53.158;6.398;2022-12-18T00:10:23;56.00;;;28.95;;
58950;SDS011;44730;53.158;6.398;2022-12-18T00:12:49;65.10;;;30.25;;
58950;SDS011;44730;53.158;6.398;2022-12-18T00:15:15;61.92;;;28.70;;
58950;SDS011;44730;53.158;6.398;2022-12-18T00:17:40;55.08;;;28.40;;
58950;SDS011;44730;53.158;6.398;2022-12-18T00:20:06;56.95;;;28.13;;
58950;SDS011;44730;53.158;6.398;2022-12-18T00:22:32;54.05;;;27.05;;
58950;SDS011;44730;53.158;6.398;2022-12-18T00:24:58;54.35;;;26.80;;
58950;SDS011;44730;53.158;6.398;2022-12-18T00:27:24;58.85;;;27.95;;
58950;SDS011;44730;53.158;6.398;2022-12-18T00:29:49;60.72;;;26.58;;
58950;SDS011;44730;53.158;6.398;2022-12-18T00:32:15;60.65;;;28.30;;
58950;SDS011;44730;53.158;6.398;2022-12-18T00:34:41;55.25;;;26.65;;
58950;SDS011;44730;53.158;6.398;2022-12-18T00:37:06;57.08;;;27.52;;
58950;SDS011;44730;53.158;6.398;2022-12-18T00:39:32;59.60;;;28.48;;
58950;SDS011;44730;53.158;6.398;2022-12-18T00:42:01;53.63;;;26.05;;
58950;SDS011;44730;53.158;6.398;2022-12-18T00:44:45;54.08;;;25.88;;
58950;SDS011;44730;53.158;6.398;2022-12-18T00:47:11;56.65;;;25.55;;
58950;SDS011;44730;53.158;6.398;2022-12-18T00:49:36;55.85;;;27.05;;
58950;SDS011;44730;53.158;6.398;2022-12-18T00:52:02;51.20;;;25.92;;
58950;SDS011;44730;53.158;6.398;2022-12-18T00:54:28;58.40;;;27.50;;
58950;SDS011;44730;53.158;6.398;2022-12-18T00:56:53;54.97;;;26.83;;
58950;SDS011;44730;53.158;6.398;2022-12-18T00:59:20;55.55;;;27.95;;
58950;SDS011;44730;53.158;6.398;2022-12-18T01:01:46;56.03;;;26.45;;
58950;SDS011;44730;53.158;6.398;2022-12-18T01:04:12;58.35;;;28.23;;
58950;SDS011;44730;53.158;6.398;2022-12-18T01:06:38;57.35;;;25.67;;
58950;SDS011;44730;53.158;6.398;2022-12-18T01:09:04;54.88;;;27.10;;
58950;SDS011;44730;53.158;6.398;2022-12-18T01:11:30;56.85;;;27.35;;
58950;SDS011;44730;53.158;6.398;2022-12-18T01:13:56;60.78;;;29.70;;
58950;SDS011;44730;53.158;6.398;2022-12-18T01:16:22;59.03;;;27.60;;
58950;SDS011;44730;53.158;6.398;2022-12-18T01:18:50;59.35;;;25.58;;
58950;SDS011;44730;53.158;6.398;2022-12-18T01:21:17;62.38;;;27.00;;
58950;SDS011;44730;53.158;6.398;2022-12-18T01:23:43;58.63;;;27.88;;
58950;SDS011;44730;53.158;6.398;2022-12-18T01:26:09;57.65;;;26.98;;
58950;SDS011;44730;53.158;6.398;2022-12-18T01:28:37;57.13;;;25.88;;
58950;SDS011;44730;53.158;6.398;2022-12-18T01:34:02;53.58;;;26.20;;
58950;SDS011;44730;53.158;6.398;2022-12-18T01:36:30;53.10;;;24.95;;
58950;SDS011;44730;53.158;6.398;2022-12-18T01:39:01;56.40;;;25.70;;
58950;SDS011;44730;53.158;6.398;2022-12-18T01:41:29;49.75;;;25.08;;
58950;SDS011;44730;53.158;6.398;2022-12-18T01:50:11;52.05;;;26.45;;
58950;SDS011;44730;53.158;6.398;2022-12-18T01:52:52;48.10;;;23.38;;
58950;SDS011;44730;53.158;6.398;2022-12-18T01:55:22;44.03;;;22.27;;
58950;SDS011;44730;53.158;6.398;2022-12-18T01:57:55;56.10;;;24.95;;
58950;SDS011;44730;53.158;6.398;2022-12-18T02:00:23;53.55;;;25.25;;
58950;SDS011;44730;53.158;6.398;2022-12-18T02:02:49;54.92;;;23.90;;
58950;SDS011;44730;53.158;6.398;2022-12-18T02:05:22;54.55;;;25.50;;
58950;SDS011;44730;53.158;6.398;2022-12-18T02:08:26;50.33;;;25.80;;
58950;SDS011;44730;53.158;6.398;2022-12-18T02:16:48;49.38;;;25.42;;
58950;SDS011;44730;53.158;6.398;2022-12-18T02:28:06;55.38;;;28.10;;
58950;SDS011;44730;53.158;6.398;2022-12-18T02:30:36;57.88;;;27.77;;
58950;SDS011;44730;53.158;6.398;2022-12-18T02:33:04;54.30;;;27.48;;
58950;SDS011;44730;53.158;6.398;2022-12-18T02:35:32;55.65;;;26.75;;
58950;SDS011;44730;53.158;6.398;2022-12-18T02:37:59;62.80;;;27.63;;
58950;SDS011;44730;53.158;6.398;2022-12-18T02:40:26;51.42;;;26.33;;
58950;SDS011;44730;53.158;6.398;2022-12-18T02:42:54;52.33;;;25.42;;
58950;SDS011;44730;53.158;6.398;2022-12-18T02:45:19;55.35;;;27.13;;
58950;SDS011;44730;53.158;6.398;2022-12-18T02:47:46;56.08;;;24.48;;
58950;SDS011;44730;53.158;6.398;2022-12-18T02:50:19;52.60;;;24.35;;
58950;SDS011;44730;53.158;6.398;2022-12-18T02:53:19;48.28;;;23.88;;
58950;SDS011;44730;53.158;6.398;2022-12-18T03:01:37;54.80;;;25.13;;
58950;SDS011;44730;53.158;6.398;2022-12-18T03:04:15;49.88;;;25.75;;
58950;SDS011;44730;53.158;6.398;2022-12-18T03:06:54;51.63;;;25.50;;
58950;SDS011;44730;53.158;6.398;2022-12-18T03:09:31;48.28;;;24.75;;
58950;SDS011;44730;53.158;6.398;2022-12-18T03:12:12;48.72;;;25.50;;
58950;SDS011;44730;53.158;6.398;2022-12-18T03:14:50;53.00;;;26.88;;
58950;SDS011;44730;53.158;6.398;2022-12-18T03:17:23;51.38;;;24.52;;
58950;SDS011;44730;53.158;6.398;2022-12-18T03:19:52;54.90;;;27.05;;
58950;SDS011;44730;53.158;6.398;2022-12-18T03:22:20;55.75;;;26.67;;
58950;SDS011;44730;53.158;6.398;2022-12-18T03:24:47;54.65;;;27.55;;
58950;SDS011;44730;53.158;6.398;2022-12-18T03:27:14;59.25;;;28.48;;
58950;SDS011;44730;53.158;6.398;2022-12-18T03:29:50;55.67;;;27.17;;
58950;SDS011;44730;53.158;6.398;2022-12-18T03:32:25;50.10;;;27.20;;
58950;SDS011;44730;53.158;6.398;2022-12-18T03:37:23;52.92;;;27.35;;
58950;SDS011;44730;53.158;6.398;2022-12-18T03:39:49;52.70;;;26.25;;
58950;SDS011;44730;53.158;6.398;2022-12-18T03:42:15;55.53;;;27.33;;
58950;SDS011;44730;53.158;6.398;2022-12-18T03:45:02;55.88;;;26.90;;
58950;SDS011;44730;53.158;6.398;2022-12-18T03:47:51;58.53;;;26.77;;
58950;SDS011;44730;53.158;6.398;2022-12-18T03:50:20;47.25;;;25.00;;
58950;SDS011;44730;53.158;6.398;2022-12-18T03:53:16;50.55;;;25.83;;
58950;SDS011;44730;53.158;6.398;2022-12-18T03:55:50;51.13;;;26.83;;
58950;SDS011;44730;53.158;6.398;2022-12-18T03:58:17;48.90;;;26.80;;
58950;SDS011;44730;53.158;6.398;2022-12-18T04:00:47;50.60;;;25.73;;
58950;SDS011;44730;53.158;6.398;2022-12-18T04:03:16;53.42;;;27.08;;
58950;SDS011;44730;53.158;6.398;2022-12-18T04:05:44;47.53;;;25.38;;
58950;SDS011;44730;53.158;6.398;2022-12-18T04:08:12;51.90;;;24.75;;
58950;SDS011;44730;53.158;6.398;2022-12-18T04:10:38;50.20;;;24.77;;
58950;SDS011;44730;53.158;6.398;2022-12-18T04:13:04;47.72;;;24.95;;
58950;SDS011;44730;53.158;6.398;2022-12-18T04:15:31;50.17;;;24.67;;
58950;SDS011;44730;53.158;6.398;2022-12-18T04:17:59;52.00;;;26.23;;
58950;SDS011;44730;53.158;6.398;2022-12-18T04:20:25;46.75;;;23.70;;
58950;SDS011;44730;53.158;6.398;2022-12-18T04:22:51;52.08;;;25.20;;
58950;SDS011;44730;53.158;6.398;2022-12-18T04:25:17;45.38;;;23.50;;
58950;SDS011;44730;53.158;6.398;2022-12-18T04:27:43;40.15;;;23.02;;
58950;SDS011;44730;53.158;6.398;2022-12-18T04:30:09;46.08;;;24.25;;
58950;SDS011;44730;53.158;6.398;2022-12-18T04:32:35;43.60;;;22.50;;
58950;SDS011;44730;53.158;6.398;2022-12-18T04:35:01;50.38;;;23.83;;
58950;SDS011;44730;53.158;6.398;2022-12-18T04:37:29;43.53;;;22.02;;
58950;SDS011;44730;53.158;6.398;2022-12-18T04:39:55;48.78;;;24.73;;
58950;SDS011;44730;53.158;6.398;2022-12-18T04:42:20;43.80;;;23.48;;
58950;SDS011;44730;53.158;6.398;2022-12-18T04:44:46;50.05;;;23.70;;
58950;SDS011;44730;53.158;6.398;2022-12-18T04:47:12;50.40;;;25.75;;
58950;SDS011;44730;53.158;6.398;2022-12-18T04:49:37;47.85;;;21.85;;
58950;SDS011;44730;53.158;6.398;2022-12-18T04:52:03;48.78;;;24.00;;
58950;SDS011;44730;53.158;6.398;2022-12-18T04:54:33;38.80;;;22.33;;
58950;SDS011;44730;53.158;6.398;2022-12-18T04:56:59;43.47;;;22.58;;
58950;SDS011;44730;53.158;6.398;2022-12-18T04:59:24;37.58;;;21.48;;
58950;SDS011;44730;53.158;6.398;2022-12-18T05:01:50;39.70;;;21.52;;
58950;SDS011;44730;53.158;6.398;2022-12-18T05:04:16;50.42;;;24.35;;
58950;SDS011;44730;53.158;6.398;2022-12-18T05:06:42;44.20;;;23.55;;
58950;SDS011;44730;53.158;6.398;2022-12-18T05:09:07;47.90;;;23.17;;
58950;SDS011;44730;53.158;6.398;2022-12-18T05:11:33;40.80;;;22.10;;
58950;SDS011;44730;53.158;6.398;2022-12-18T05:13:58;44.15;;;22.77;;
58950;SDS011;44730;53.158;6.398;2022-12-18T05:16:24;41.78;;;21.67;;
58950;SDS011;44730;53.158;6.398;2022-12-18T05:18:50;48.33;;;22.65;;
58950;SDS011;44730;53.158;6.398;2022-12-18T05:21:15;42.60;;;22.05;;
58950;SDS011;44730;53.158;6.398;2022-12-18T05:23:41;45.28;;;22.58;;
58950;SDS011;44730;53.158;6.398;2022-12-18T05:26:07;41.13;;;21.42;;
58950;SDS011;44730;53.158;6.398;2022-12-18T05:28:34;46.67;;;21.95;;
58950;SDS011;44730;53.158;6.398;2022-12-18T05:31:01;43.00;;;21.70;;
58950;SDS011;44730;53.158;6.398;2022-12-18T05:33:31;38.63;;;20.33;;
58950;SDS011;44730;53.158;6.398;2022-12-18T05:36:00;43.58;;;21.20;;
58950;SDS011;44730;53.158;6.398;2022-12-18T05:38:27;40.72;;;20.17;;
58950;SDS011;44730;53.158;6.398;2022-12-18T05:40:54;44.70;;;20.35;;
58950;SDS011;44730;53.158;6.398;2022-12-18T05:43:20;41.95;;;21.25;;
58950;SDS011;44730;53.158;6.398;2022-12-18T05:45:46;39.70;;;20.23;;
58950;SDS011;44730;53.158;6.398;2022-12-18T05:48:13;39.17;;;21.90;;
58950;SDS011;44730;53.158;6.398;2022-12-18T05:50:40;41.28;;;21.08;;
58950;SDS011;44730;53.158;6.398;2022-12-18T05:53:08;40.53;;;20.48;;
58950;SDS011;44730;53.158;6.398;2022-12-18T05:55:37;36.45;;;19.15;;
58950;SDS011;44730;53.158;6.398;2022-12-18T05:58:05;41.22;;;20.23;;
58950;SDS011;44730;53.158;6.398;2022-12-18T06:00:32;36.65;;;19.30;;
58950;SDS011;44730;53.158;6.398;2022-12-18T06:03:00;42.00;;;20.98;;
58950;SDS011;44730;53.158;6.398;2022-12-18T06:05:26;49.30;;;20.85;;
58950;SDS011;44730;53.158;6.398;2022-12-18T06:07:52;42.13;;;20.02;;
58950;SDS011;44730;53.158;6.398;2022-12-18T06:10:18;44.65;;;21.42;;
58950;SDS011;44730;53.158;6.398;2022-12-18T06:12:44;42.70;;;21.38;;
58950;SDS011;44730;53.158;6.398;2022-12-18T06:15:10;37.22;;;20.55;;
58950;SDS011;44730;53.158;6.398;2022-12-18T06:17:36;39.05;;;19.60;;
58950;SDS011;44730;53.158;6.398;2022-12-18T06:20:02;41.95;;;20.58;;
58950;SDS011;44730;53.158;6.398;2022-12-18T06:22:32;46.15;;;21.65;;
58950;SDS011;44730;53.158;6.398;2022-12-18T06:24:59;40.15;;;21.20;;
58950;SDS011;44730;53.158;6.398;2022-12-18T06:27:25;41.05;;;19.65;;
58950;SDS011;44730;53.158;6.398;2022-12-18T06:29:51;45.45;;;21.02;;
58950;SDS011;44730;53.158;6.398;2022-12-18T06:32:17;43.80;;;21.13;;
58950;SDS011;44730;53.158;6.398;2022-12-18T06:34:43;31.65;;;18.30;;
58950;SDS011;44730;53.158;6.398;2022-12-18T06:37:08;37.38;;;19.23;;
58950;SDS011;44730;53.158;6.398;2022-12-18T06:39:34;40.25;;;20.63;;
58950;SDS011;44730;53.158;6.398;2022-12-18T06:42:00;36.97;;;20.52;;
58950;SDS011;44730;53.158;6.398;2022-12-18T06:44:26;36.00;;;19.27;;
58950;SDS011;44730;53.158;6.398;2022-12-18T06:46:51;36.38;;;19.67;;
58950;SDS011;44730;53.158;6.398;2022-12-18T06:49:17;35.50;;;18.77;;
58950;SDS011;44730;53.158;6.398;2022-12-18T06:51:43;37.72;;;17.98;;
58950;SDS011;44730;53.158;6.398;2022-12-18T06:54:08;40.17;;;19.48;;
58950;SDS011;44730;53.158;6.398;2022-12-18T06:56:34;36.60;;;20.63;;
58950;SDS011;44730;53.158;6.398;2022-12-18T06:59:00;35.72;;;18.88;;
58950;SDS011;44730;53.158;6.398;2022-12-18T07:01:25;37.97;;;19.13;;
58950;SDS011;44730;53.158;6.398;2022-12-18T07:03:55;35.05;;;18.42;;
58950;SDS011;44730;53.158;6.398;2022-12-18T07:06:22;35.67;;;18.15;;
58950;SDS011;44730;53.158;6.398;2022-12-18T07:08:49;30.77;;;17.33;;
58950;SDS011;44730;53.158;6.398;2022-12-18T07:11:16;32.35;;;19.42;;
58950;SDS011;44730;53.158;6.398;2022-12-18T07:13:43;32.40;;;17.75;;
58950;SDS011;44730;53.158;6.398;2022-12-18T07:16:10;40.45;;;18.60;;
58950;SDS011;44730;53.158;6.398;2022-12-18T07:18:37;32.13;;;17.98;;
58950;SDS011;44730;53.158;6.398;2022-12-18T07:21:07;30.70;;;17.02;;
58950;SDS011;44730;53.158;6.398;2022-12-18T07:23:34;33.72;;;17.98;;
58950;SDS011;44730;53.158;6.398;2022-12-18T07:26:01;34.88;;;17.58;;
58950;SDS011;44730;53.158;6.398;2022-12-18T07:28:28;26.58;;;16.50;;
58950;SDS011;44730;53.158;6.398;2022-12-18T07:30:54;31.40;;;17.02;;
58950;SDS011;44730;53.158;6.398;2022-12-18T07:33:20;30.30;;;15.68;;
58950;SDS011;44730;53.158;6.398;2022-12-18T07:35:45;31.17;;;17.38;;
58950;SDS011;44730;53.158;6.398;2022-12-18T07:38:11;31.90;;;16.00;;
58950;SDS011;44730;53.158;6.398;2022-12-18T07:40:37;26.08;;;16.80;;
58950;SDS011;44730;53.158;6.398;2022-12-18T07:43:03;28.73;;;16.45;;
58950;SDS011;44730;53.158;6.398;2022-12-18T07:45:29;28.65;;;15.60;;
58950;SDS011;44730;53.158;6.398;2022-12-18T07:47:55;27.13;;;15.52;;
58950;SDS011;44730;53.158;6.398;2022-12-18T07:50:23;24.52;;;14.70;;
58950;SDS011;44730;53.158;6.398;2022-12-18T07:52:49;28.35;;;15.35;;
58950;SDS011;44730;53.158;6.398;2022-12-18T07:55:15;29.88;;;15.63;;
58950;SDS011;44730;53.158;6.398;2022-12-18T07:57:40;28.70;;;15.80;;
58950;SDS011;44730;53.158;6.398;2022-12-18T08:00:06;25.02;;;15.13;;
58950;SDS011;44730;53.158;6.398;2022-12-18T08:02:33;25.38;;;15.20;;
58950;SDS011;44730;53.158;6.398;2022-12-18T08:04:58;26.92;;;15.88;;
58950;SDS011;44730;53.158;6.398;2022-12-18T08:07:24;23.50;;;14.77;;
58950;SDS011;44730;53.158;6.398;2022-12-18T08:09:50;24.45;;;15.13;;
58950;SDS011;44730;53.158;6.398;2022-12-18T08:12:15;27.92;;;15.07;;
58950;SDS011;44730;53.158;6.398;2022-12-18T08:14:41;25.70;;;15.60;;
58950;SDS011;44730;53.158;6.398;2022-12-18T08:17:07;26.25;;;14.82;;
58950;SDS011;44730;53.158;6.398;2022-12-18T08:19:32;23.42;;;14.93;;
58950;SDS011;44730;53.158;6.398;2022-12-18T08:21:58;24.77;;;15.02;;
58950;SDS011;44730;53.158;6.398;2022-12-18T08:24:24;26.15;;;15.90;;
58950;SDS011;44730;53.158;6.398;2022-12-18T08:26:50;25.15;;;13.75;;
58950;SDS011;44730;53.158;6.398;2022-12-18T08:29:16;24.13;;;13.80;;
58950;SDS011;44730;53.158;6.398;2022-12-18T08:31:42;21.38;;;13.57;;
58950;SDS011;44730;53.158;6.398;2022-12-18T08:34:08;24.73;;;13.48;;
58950;SDS011;44730;53.158;6.398;2022-12-18T08:36:34;22.00;;;13.50;;
58950;SDS011;44730;53.158;6.398;2022-12-18T08:39:00;24.27;;;14.88;;
58950;SDS011;44730;53.158;6.398;2022-12-18T08:41:25;23.33;;;13.15;;
58950;SDS011;44730;53.158;6.398;2022-12-18T08:43:51;24.42;;;14.45;;
58950;SDS011;44730;53.158;6.398;2022-12-18T08:46:36;24.17;;;14.82;;
58950;SDS011;44730;53.158;6.398;2022-12-18T08:49:07;21.17;;;13.52;;
58950;SDS011;44730;53.158;6.398;2022-12-18T08:51:33;22.90;;;13.52;;
58950;SDS011;44730;53.158;6.398;2022-12-18T08:53:59;21.75;;;13.10;;
58950;SDS011;44730;53.158;6.398;2022-12-18T08:56:25;24.52;;;13.73;;
58950;SDS011;44730;53.158;6.398;2022-12-18T08:58:52;24.02;;;13.52;;
58950;SDS011;44730;53.158;6.398;2022-12-18T09:01:19;23.17;;;13.40;;
58950;SDS011;44730;53.158;6.398;2022-12-18T09:03:45;22.35;;;13.52;;
58950;SDS011;44730;53.158;6.398;2022-12-18T09:06:13;21.73;;;12.75;;
58950;SDS011;44730;53.158;6.398;2022-12-18T09:08:42;19.75;;;12.88;;
58950;SDS011;44730;53.158;6.398;2022-12-18T09:11:11;22.08;;;13.10;;
58950;SDS011;44730;53.158;6.398;2022-12-18T09:13:39;21.30;;;12.90;;
58950;SDS011;44730;53.158;6.398;2022-12-18T09:16:08;18.30;;;12.00;;
58950;SDS011;44730;53.158;6.398;2022-12-18T09:18:34;21.85;;;12.70;;
58950;SDS011;44730;53.158;6.398;2022-12-18T09:21:06;18.25;;;12.75;;
58950;SDS011;44730;53.158;6.398;2022-12-18T09:23:37;21.80;;;13.15;;
58950;SDS011;44730;53.158;6.398;2022-12-18T09:26:03;19.40;;;11.82;;
58950;SDS011;44730;53.158;6.398;2022-12-18T09:28:29;17.80;;;11.90;;
58950;SDS011;44730;53.158;6.398;2022-12-18T09:30:54;19.98;;;12.18;;
58950;SDS011;44730;53.158;6.398;2022-12-18T09:33:20;20.83;;;13.50;;
58950;SDS011;44730;53.158;6.398;2022-12-18T09:35:46;18.52;;;11.82;;
58950;SDS011;44730;53.158;6.398;2022-12-18T09:38:12;20.50;;;12.40;;
58950;SDS011;44730;53.158;6.398;2022-12-18T09:40:48;16.42;;;11.70;;
58950;SDS011;44730;53.158;6.398;2022-12-18T09:43:26;20.42;;;12.55;;
58950;SDS011;44730;53.158;6.398;2022-12-18T09:46:10;16.25;;;12.48;;
58950;SDS011;44730;53.158;6.398;2022-12-18T09:48:48;19.77;;;12.98;;
58950;SDS011;44730;53.158;6.398;2022-12-18T09:51:22;20.25;;;13.13;;
58950;SDS011;44730;53.158;6.398;2022-12-18T09:53:55;18.70;;;12.13;;
58950;SDS011;44730;53.158;6.398;2022-12-18T09:56:24;17.25;;;12.18;;
58950;SDS011;44730;53.158;6.398;2022-12-18T09:59:00;18.80;;;11.88;;
58950;SDS011;44730;53.158;6.398;2022-12-18T10:01:28;20.55;;;12.27;;
58950;SDS011;44730;53.158;6.398;2022-12-18T10:03:55;17.27;;;11.48;;
58950;SDS011;44730;53.158;6.398;2022-12-18T10:06:31;21.20;;;13.00;;
58950;SDS011;44730;53.158;6.398;2022-12-18T10:09:10;18.25;;;12.93;;
58950;SDS011;44730;53.158;6.398;2022-12-18T10:15:51;19.58;;;12.48;;
58950;SDS011;44730;53.158;6.398;2022-12-18T10:21:23;18.48;;;11.48;;
58950;SDS011;44730;53.158;6.398;2022-12-18T10:26:51;17.17;;;11.52;;
58950;SDS011;44730;53.158;6.398;2022-12-18T10:29:21;19.70;;;11.80;;
58950;SDS011;44730;53.158;6.398;2022-12-18T10:31:47;19.98;;;11.40;;
58950;SDS011;44730;53.158;6.398;2022-12-18T10:34:13;17.52;;;11.55;;
58950;SDS011;44730;53.158;6.398;2022-12-18T10:36:38;17.85;;;11.73;;
58950;SDS011;44730;53.158;6.398;2022-12-18T10:39:18;23.63;;;11.00;;
58950;SDS011;44730;53.158;6.398;2022-12-18T10:41:49;16.58;;;11.07;;
58950;SDS011;44730;53.158;6.398;2022-12-18T10:44:17;15.48;;;10.15;;
58950;SDS011;44730;53.158;6.398;2022-12-18T10:46:46;17.80;;;10.38;;
58950;SDS011;44730;53.158;6.398;2022-12-18T10:49:25;15.00;;;10.27;;
58950;SDS011;44730;53.158;6.398;2022-12-18T10:54:58;14.45;;;8.98;;
58950;SDS011;44730;53.158;6.398;2022-12-18T10:57:32;14.32;;;9.45;;
58950;SDS011;44730;53.158;6.398;2022-12-18T11:02:54;13.77;;;7.60;;
58950;SDS011;44730;53.158;6.398;2022-12-18T11:05:28;12.88;;;8.95;;
58950;SDS011;44730;53.158;6.398;2022-12-18T11:08:02;15.05;;;9.45;;
58950;SDS011;44730;53.158;6.398;2022-12-18T11:10:37;12.43;;;9.10;;
58950;SDS011;44730;53.158;6.398;2022-12-18T11:13:16;12.80;;;8.55;;
58950;SDS011;44730;53.158;6.398;2022-12-18T11:15:45;14.30;;;8.88;;
58950;SDS011;44730;53.158;6.398;2022-12-18T11:18:31;16.52;;;9.65;;
58950;SDS011;44730;53.158;6.398;2022-12-18T11:21:05;14.13;;;9.15;;
58950;SDS011;44730;53.158;6.398;2022-12-18T11:23:31;12.70;;;8.75;;
58950;SDS011;44730;53.158;6.398;2022-12-18T11:25:58;14.10;;;9.20;;
58950;SDS011;44730;53.158;6.398;2022-12-18T11:31:12;13.45;;;8.45;;
58950;SDS011;44730;53.158;6.398;2022-12-18T11:33:49;13.63;;;8.60;;
58950;SDS011;44730;53.158;6.398;2022-12-18T11:36:17;11.98;;;9.05;;
58950;SDS011;44730;53.158;6.398;2022-12-18T11:38:44;13.48;;;9.15;;
58950;SDS011;44730;53.158;6.398;2022-12-18T11:44:31;12.23;;;8.60;;
58950;SDS011;44730;53.158;6.398;2022-12-18T11:50:12;10.55;;;7.35;;
58950;SDS011;44730;53.158;6.398;2022-12-18T11:53:20;13.63;;;7.93;;
58950;SDS011;44730;53.158;6.398;2022-12-18T11:58:17;13.95;;;8.77;;
58950;SDS011;44730;53.158;6.398;2022-12-18T12:00:48;12.05;;;7.20;;
58950;SDS011;44730;53.158;6.398;2022-12-18T12:20:17;10.10;;;6.82;;
58950;SDS011;44730;53.158;6.398;2022-12-18T12:23:15;10.55;;;7.47;;
58950;SDS011;44730;53.158;6.398;2022-12-18T12:25:52;10.40;;;6.97;;
58950;SDS011;44730;53.158;6.398;2022-12-18T12:39:47;8.63;;;6.03;;
58950;SDS011;44730;53.158;6.398;2022-12-18T12:42:18;9.38;;;6.60;;
58950;SDS011;44730;53.158;6.398;2022-12-18T12:45:13;8.32;;;6.20;;
58950;SDS011;44730;53.158;6.398;2022-12-18T12:47:51;11.13;;;6.53;;
58950;SDS011;44730;53.158;6.398;2022-12-18T12:50:19;8.68;;;5.80;;
58950;SDS011;44730;53.158;6.398;2022-12-18T12:52:53;9.15;;;6.03;;
58950;SDS011;44730;53.158;6.398;2022-12-18T12:55:22;10.65;;;6.88;;
58950;SDS011;44730;53.158;6.398;2022-12-18T13:00:16;7.80;;;5.63;;
58950;SDS011;44730;53.158;6.398;2022-12-18T13:08:26;7.93;;;5.70;;
58950;SDS011;44730;53.158;6.398;2022-12-18T13:11:14;6.95;;;5.60;;
58950;SDS011;44730;53.158;6.398;2022-12-18T13:14:24;9.02;;;5.55;;
58950;SDS011;44730;53.158;6.398;2022-12-18T13:17:15;9.40;;;5.78;;
58950;SDS011;44730;53.158;6.398;2022-12-18T13:19:47;7.45;;;5.22;;
58950;SDS011;44730;53.158;6.398;2022-12-18T13:22:31;7.45;;;4.85;;
58950;SDS011;44730;53.158;6.398;2022-12-18T13:25:33;8.25;;;5.30;;
58950;SDS011;44730;53.158;6.398;2022-12-18T13:28:06;7.45;;;4.85;;
58950;SDS011;44730;53.158;6.398;2022-12-18T13:43:41;6.93;;;5.45;;
58950;SDS011;44730;53.158;6.398;2022-12-18T13:46:28;7.90;;;5.38;;
58950;SDS011;44730;53.158;6.398;2022-12-18T13:51:40;7.10;;;4.90;;
58950;SDS011;44730;53.158;6.398;2022-12-18T13:54:23;8.55;;;6.07;;
58950;SDS011;44730;53.158;6.398;2022-12-18T13:57:01;6.85;;;5.10;;
58950;SDS011;44730;53.158;6.398;2022-12-18T13:59:38;8.45;;;5.63;;
58950;SDS011;44730;53.158;6.398;2022-12-18T14:02:23;9.93;;;5.47;;
58950;SDS011;44730;53.158;6.398;2022-12-18T14:04:51;7.78;;;5.20;;
58950;SDS011;44730;53.158;6.398;2022-12-18T14:07:19;7.93;;;5.43;;
58950;SDS011;44730;53.158;6.398;2022-12-18T14:12:26;8.95;;;5.40;;
58950;SDS011;44730;53.158;6.398;2022-12-18T14:18:02;7.35;;;5.18;;
58950;SDS011;44730;53.158;6.398;2022-12-18T14:20:46;9.18;;;5.20;;
58950;SDS011;44730;53.158;6.398;2022-12-18T14:25:54;8.98;;;5.38;;
58950;SDS011;44730;53.158;6.398;2022-12-18T14:28:20;8.30;;;6.20;;
58950;SDS011;44730;53.158;6.398;2022-12-18T14:30:47;9.25;;;5.53;;
58950;SDS011;44730;53.158;6.398;2022-12-18T14:33:19;10.65;;;5.57;;
58950;SDS011;44730;53.158;6.398;2022-12-18T14:38:29;9.18;;;5.78;;
58950;SDS011;44730;53.158;6.398;2022-12-18T14:43:36;8.23;;;5.68;;
58950;SDS011;44730;53.158;6.398;2022-12-18T14:49:02;7.60;;;5.07;;
58950;SDS011;44730;53.158;6.398;2022-12-18T14:51:29;9.32;;;5.90;;
58950;SDS011;44730;53.158;6.398;2022-12-18T14:56:29;9.30;;;6.07;;
58950;SDS011;44730;53.158;6.398;2022-12-18T14:58:59;8.65;;;5.38;;
58950;SDS011;44730;53.158;6.398;2022-12-18T15:01:39;8.43;;;5.40;;
58950;SDS011;44730;53.158;6.398;2022-12-18T15:04:26;7.07;;;4.93;;
58950;SDS011;44730;53.158;6.398;2022-12-18T15:09:42;7.03;;;5.00;;
58950;SDS011;44730;53.158;6.398;2022-12-18T15:12:32;8.45;;;5.75;;
58950;SDS011;44730;53.158;6.398;2022-12-18T15:15:04;7.88;;;5.38;;
58950;SDS011;44730;53.158;6.398;2022-12-18T15:17:56;8.13;;;6.05;;
58950;SDS011;44730;53.158;6.398;2022-12-18T15:20:25;7.97;;;5.28;;
58950;SDS011;44730;53.158;6.398;2022-12-18T15:22:51;7.97;;;5.35;;
58950;SDS011;44730;53.158;6.398;2022-12-18T15:25:34;7.82;;;5.50;;
58950;SDS011;44730;53.158;6.398;2022-12-18T15:28:02;9.27;;;5.45;;
58950;SDS011;44730;53.158;6.398;2022-12-18T15:30:29;7.60;;;5.30;;
58950;SDS011;44730;53.158;6.398;2022-12-18T15:35:58;8.52;;;5.35;;
58950;SDS011;44730;53.158;6.398;2022-12-18T15:38:25;9.60;;;5.88;;
58950;SDS011;44730;53.158;6.398;2022-12-18T15:40:52;9.05;;;6.35;;
58950;SDS011;44730;53.158;6.398;2022-12-18T15:43:19;8.18;;;5.82;;
58950;SDS011;44730;53.158;6.398;2022-12-18T15:46:07;8.70;;;5.82;;
58950;SDS011;44730;53.158;6.398;2022-12-18T15:48:41;8.77;;;5.95;;
58950;SDS011;44730;53.158;6.398;2022-12-18T15:51:31;10.90;;;7.07;;
58950;SDS011;44730;53.158;6.398;2022-12-18T15:54:00;13.60;;;6.60;;
58950;SDS011;44730;53.158;6.398;2022-12-18T15:56:28;8.38;;;6.20;;
58950;SDS011;44730;53.158;6.398;2022-12-18T15:59:14;11.00;;;6.72;;
58950;SDS011;44730;53.158;6.398;2022-12-18T16:01:45;10.07;;;6.88;;
58950;SDS011;44730;53.158;6.398;2022-12-18T16:04:13;10.75;;;7.07;;
58950;SDS011;44730;53.158;6.398;2022-12-18T16:06:45;9.07;;;6.68;;
58950;SDS011;44730;53.158;6.398;2022-12-18T16:09:10;9.52;;;6.65;;
58950;SDS011;44730;53.158;6.398;2022-12-18T16:11:36;9.65;;;6.75;;
58950;SDS011;44730;53.158;6.398;2022-12-18T16:14:11;9.75;;;7.45;;
58950;SDS011;44730;53.158;6.398;2022-12-18T16:16:47;13.10;;;7.38;;
58950;SDS011;44730;53.158;6.398;2022-12-18T16:19:15;11.10;;;7.22;;
58950;SDS011;44730;53.158;6.398;2022-12-18T16:21:41;9.18;;;7.13;;
58950;SDS011;44730;53.158;6.398;2022-12-18T16:24:20;8.80;;;7.10;;
58950;SDS011;44730;53.158;6.398;2022-12-18T16:26:48;9.80;;;7.00;;
58950;SDS011;44730;53.158;6.398;2022-12-18T16:29:16;11.70;;;7.47;;
58950;SDS011;44730;53.158;6.398;2022-12-18T16:31:43;10.45;;;6.88;;
58950;SDS011;44730;53.158;6.398;2022-12-18T16:34:19;12.13;;;8.00;;
58950;SDS011;44730;53.158;6.398;2022-12-18T16:37:02;11.77;;;7.55;;
58950;SDS011;44730;53.158;6.398;2022-12-18T16:39:29;12.27;;;7.70;;
58950;SDS011;44730;53.158;6.398;2022-12-18T16:41:55;13.88;;;7.22;;
58950;SDS011;44730;53.158;6.398;2022-12-18T16:44:22;13.68;;;7.50;;
58950;SDS011;44730;53.158;6.398;2022-12-18T16:46:50;11.77;;;7.53;;
58950;SDS011;44730;53.158;6.398;2022-12-18T16:49:19;10.10;;;7.25;;
58950;SDS011;44730;53.158;6.398;2022-12-18T16:51:45;10.52;;;7.35;;
58950;SDS011;44730;53.158;6.398;2022-12-18T16:54:12;11.75;;;7.75;;
58950;SDS011;44730;53.158;6.398;2022-12-18T16:56:38;12.05;;;7.18;;
58950;SDS011;44730;53.158;6.398;2022-12-18T16:59:04;9.50;;;7.00;;
58950;SDS011;44730;53.158;6.398;2022-12-18T17:01:30;10.73;;;7.40;;